Time;durP1;ratioP1;P1;durP2;ratioP2;P2;SDS_P1;SDS_P2;PMS_P1;PMS_P2;Temp;Humidity;BMP_temperature;BMP_pressure;BME280_temperature;BME280_humidity;BME280_pressure;Samples;Min_cycle;Max_cycle;Signal;HPM_P1;HPM_P2
2021/09/30 00:00:23;;;;;;;21.25;12.93;;;;;;;6.59;87.81;143880.66;1835095;77;22560;-59
2021/09/30 00:02:57;;;;;;;19.23;12.45;;;;;;;6.58;87.67;143878.13;1834982;77;22551;-63
2021/09/30 00:05:51;;;;;;;21.00;13.35;;;;;;;6.59;87.42;143880.66;1853599;77;22120;-58
2021/09/30 00:08:26;;;;;;;21.82;12.78;;;;;;;6.58;87.24;143878.13;1834985;77;22136;-64
2021/09/30 00:11:11;;;;;;;22.35;13.18;;;;;;;6.56;87.21;143873.11;1834993;77;22125;-59
2021/09/30 00:14:10;;;;;;;19.67;12.63;;;;;;;6.55;87.11;143869.39;1834961;77;22152;-60
2021/09/30 00:46:49;;;;;;;25.50;13.00;;;;;;;6.40;86.77;143833.12;1853516;77;22135;-58
2021/09/30 00:52:45;;;;;;;23.52;13.72;;;;;;;6.38;87.05;143828.13;1834991;77;22125;-65
2021/09/30 01:33:20;;;;;;;23.90;15.03;;;;;;;6.33;87.56;143815.62;1834989;77;22152;-64
2021/09/30 02:19:05;;;;;;;26.85;17.10;;;;;;;6.46;86.30;143848.11;1834166;77;22214;-61
2021/09/30 02:22:02;;;;;;;25.48;16.60;;;;;;;6.42;86.52;143839.38;1835105;77;22128;-62
2021/09/30 02:27:51;;;;;;;28.73;16.97;;;;;;;6.39;86.85;143830.66;1835149;77;22156;-58
2021/09/30 02:30:48;;;;;;;25.10;16.62;;;;;;;6.38;86.96;143828.13;1819329;77;27973;-61
2021/09/30 02:39:35;;;;;;;31.48;15.45;;;;;;;6.39;86.99;143830.66;1834977;77;22559;-61
2021/09/30 03:00:46;;;;;;;25.62;14.53;;;;;;;6.41;86.90;143835.63;1854069;77;22127;-63
2021/09/30 03:03:48;;;;;;;25.50;14.78;;;;;;;6.40;86.93;143833.12;1834234;77;22172;-61
2021/09/30 03:06:43;;;;;;;22.52;14.68;;;;;;;6.41;86.82;143835.63;1800608;79;22175;-58
2021/09/30 03:09:43;;;;;;;23.70;14.70;;;;;;;6.42;86.84;143838.14;1834937;77;22136;-60
2021/09/30 03:12:38;;;;;;;27.20;15.55;;;;;;;6.42;86.82;143838.14;1834939;77;22136;-65
2021/09/30 03:15:43;;;;;;;27.58;16.17;;;;;;;6.41;86.89;143836.91;1834958;77;22132;-61
2021/09/30 03:23:50;;;;;;;27.15;17.48;;;;;;;6.41;86.90;143836.91;1835004;77;22125;-60
2021/09/30 03:26:47;;;;;;;33.18;17.80;;;;;;;6.42;86.85;143839.38;1834909;77;22132;-64
2021/09/30 03:29:23;;;;;;;26.97;16.80;;;;;;;6.41;87.03;143836.91;1834931;77;22604;-63
2021/09/30 03:31:59;;;;;;;40.65;19.57;;;;;;;6.39;87.19;143830.66;1835009;77;22132;-61
2021/09/30 03:35:05;;;;;;;29.60;17.73;;;;;;;6.35;87.55;143820.64;1834953;77;22137;-60
2021/09/30 03:38:08;;;;;;;32.78;17.45;;;;;;;6.34;87.65;143819.39;1853583;77;22163;-60
2021/09/30 03:40:43;;;;;;;36.80;20.20;;;;;;;6.35;87.93;143821.88;1853533;77;22124;-65
2021/09/30 03:43:40;;;;;;;32.55;19.98;;;;;;;6.33;88.20;143816.88;1834805;77;22575;-60
2021/09/30 03:46:34;;;;;;;27.77;18.00;;;;;;;6.28;88.43;143805.66;1853579;77;22558;-62
2021/09/30 03:49:13;;;;;;;26.75;17.98;;;;;;;6.27;88.44;143801.89;1853546;77;22124;-60
2021/09/30 03:52:21;;;;;;;28.15;18.12;;;;;;;6.26;88.51;143800.66;1834947;77;22600;-60
2021/09/30 04:00:51;;;;;;;30.97;17.12;;;;;;;6.30;88.66;143810.63;1835040;77;22125;-62
2021/09/30 04:03:25;;;;;;;27.17;15.95;;;;;;;6.28;88.75;143805.66;1853556;77;22123;-58
2021/09/30 04:06:01;;;;;;;27.95;16.55;;;;;;;6.27;88.99;143803.13;1835024;77;22159;-61
2021/09/30 04:08:37;;;;;;;31.35;18.30;;;;;;;6.26;89.02;143799.41;1835010;77;22140;-63
2021/09/30 04:11:31;;;;;;;31.27;18.98;;;;;;;6.25;89.14;143798.13;1853500;77;22554;-57
2021/09/30 04:14:12;;;;;;;39.63;18.35;;;;;;;6.23;89.22;143793.16;1834180;77;22130;-62
2021/09/30 04:17:07;;;;;;;28.87;16.73;;;;;;;6.20;89.52;143785.62;1835026;77;22606;-57
2021/09/30 04:20:01;;;;;;;28.17;16.32;;;;;;;6.22;89.59;143790.63;1834991;77;22621;-59
2021/09/30 04:22:36;;;;;;;29.70;17.25;;;;;;;6.30;89.54;143809.38;1835029;77;22132;-62
2021/09/30 04:25:31;;;;;;;31.73;18.12;;;;;;;6.36;89.45;143823.11;1834922;77;22239;-59
2021/09/30 04:28:06;;;;;;;26.42;15.32;;;;;;;6.35;89.48;143820.64;1834959;77;22141;-61
2021/09/30 04:30:42;;;;;;;22.42;15.38;;;;;;;6.37;89.57;143825.64;1835013;77;22563;-62
2021/09/30 04:33:17;;;;;;;28.98;15.95;;;;;;;6.46;89.22;143848.11;1828787;77;20114;-62
2021/09/30 04:36:11;;;;;;;28.30;16.55;;;;;;;6.90;88.83;143956.91;1828201;77;22191;-62
2021/09/30 04:38:45;;;;;;;28.45;16.62;;;;;;;7.84;87.43;144185.84;1812444;77;22120;-63
2021/09/30 04:41:21;;;;;;;25.48;14.93;;;;;;;8.74;84.40;144406.20;1804917;77;22632;-55
2021/09/30 04:44:16;;;;;;;27.95;15.68;;;;;;;9.54;80.84;144601.63;1836513;77;22215;-60
2021/09/30 04:46:52;;;;;;;30.35;15.50;;;;;;;10.33;78.87;144794.72;1828215;77;22143;-62
2021/09/30 04:49:26;;;;;;;24.45;15.83;;;;;;;11.33;75.20;145039.38;1804977;77;28026;-62
2021/09/30 04:52:01;;;;;;;26.37;15.20;;;;;;;12.11;70.70;145231.47;1816376;77;22168;-60
2021/09/30 04:54:36;;;;;;;34.05;14.55;;;;;;;12.38;68.14;145299.30;1815141;77;22123;-64
2021/09/30 04:57:32;;;;;;;32.17;14.43;;;;;;;13.14;64.92;145485.25;1833167;77;22610;-60
2021/09/30 05:00:32;;;;;;;25.95;14.40;;;;;;;13.29;62.89;145520.52;1816975;77;22615;-63
2021/09/30 05:03:06;;;;;;;25.50;13.58;;;;;;;13.42;62.70;145553.19;1820518;77;22559;-64
2021/09/30 05:05:48;;;;;;;26.82;14.45;;;;;;;14.33;60.58;145777.03;1824965;77;22171;-58
2021/09/30 05:08:50;;;;;;;18.48;12.40;;;;;;;15.47;57.41;146056.44;1834024;77;22168;-57
2021/09/30 05:11:51;;;;;;;25.85;13.40;;;;;;;15.96;53.71;146177.41;1834919;77;22547;-59
2021/09/30 05:14:43;;;;;;;32.03;13.40;;;;;;;15.91;53.06;146164.81;1834911;77;22136;-61
2021/09/30 05:17:37;;;;;;;27.70;13.10;;;;;;;16.14;52.42;146222.73;1834890;77;22250;-68
2021/09/30 05:20:18;;;;;;;25.15;13.10;;;;;;;16.42;52.09;146292.02;1834113;77;22138;-61
2021/09/30 05:22:55;;;;;;;23.70;13.22;;;;;;;17.46;49.77;146547.94;1831450;77;22715;-64
2021/09/30 05:25:50;;;;;;;19.87;13.48;;;;;;;17.66;48.57;146595.88;1817406;77;22206;-66
2021/09/30 05:28:30;;;;;;;22.98;13.70;;;;;;;17.57;47.80;146575.66;1835002;77;22140;-66
2021/09/30 05:31:06;;;;;;;26.52;14.90;;;;;;;17.82;48.17;146635.00;1837822;77;28446;-74
2021/09/30 05:33:41;;;;;;;23.87;12.53;;;;;;;18.55;46.94;146816.67;1834824;77;20099;-63
2021/09/30 05:36:24;;;;;;;29.52;13.53;;;;;;;18.95;44.49;146915.13;1820085;77;22199;-70
2021/09/30 05:39:19;;;;;;;21.48;13.10;;;;;;;18.45;44.61;146791.44;1827813;77;22216;-71
2021/09/30 05:42:15;;;;;;;27.93;13.25;;;;;;;18.08;45.10;146699.33;1834954;77;22124;-71
2021/09/30 05:44:51;;;;;;;20.37;13.58;;;;;;;18.11;45.82;146706.88;1816669;77;22215;-68
2021/09/30 05:47:46;;;;;;;21.17;13.30;;;;;;;18.24;45.00;146739.67;1853542;77;22619;-67
2021/09/30 05:50:21;;;;;;;21.05;12.95;;;;;;;18.50;44.53;146802.81;1834098;77;22155;-63
2021/09/30 05:53:34;;;;;;;22.35;11.70;;;;;;;18.44;43.92;146790.19;1820898;77;22191;-71
2021/09/30 05:56:08;;;;;;;22.60;12.35;;;;;;;18.54;43.24;146812.88;1834991;77;22132;-71
2021/09/30 05:58:45;;;;;;;18.75;12.15;;;;;;;19.05;42.62;146940.38;1834781;77;22184;-69
2021/09/30 06:15:31;;;;;;;22.10;10.63;;;;;;;20.76;38.71;147361.09;1853570;77;22147;-64
2021/09/30 06:18:25;;;;;;;15.98;10.82;;;;;;;20.87;36.43;147387.69;1835119;77;22575;-58
2021/09/30 06:21:20;;;;;;;16.05;11.50;;;;;;;19.94;38.37;147160.16;1819037;77;27983;-62
2021/09/30 06:23:56;;;;;;;15.83;10.85;;;;;;;19.58;38.66;147070.44;1827752;77;22184;-62
2021/09/30 06:26:52;;;;;;;13.53;10.15;;;;;;;18.92;40.40;146907.56;1820523;77;22136;-61
2021/09/30 06:29:27;;;;;;;19.77;10.63;;;;;;;18.69;40.72;146850.73;1834936;77;22144;-66
2021/09/30 06:32:03;;;;;;;14.15;8.68;;;;;;;18.15;41.48;146717.00;1834864;77;22180;-66
2021/09/30 06:34:41;;;;;;;14.38;10.03;;;;;;;18.05;41.55;146691.77;1800690;79;22200;-62
2021/09/30 06:37:51;;;;;;;16.23;9.80;;;;;;;17.18;42.58;146477.34;1854138;77;22209;-61
2021/09/30 06:40:47;;;;;;;16.67;10.80;;;;;;;16.58;43.71;146331.06;1824533;77;22214;-62
2021/09/30 06:43:43;;;;;;;19.32;11.33;;;;;;;17.45;42.69;146545.39;1818981;77;28167;-60
2021/09/30 06:46:24;;;;;;;17.67;9.68;;;;;;;18.68;40.71;146848.22;1853550;77;22170;-64
2021/09/30 06:49:25;;;;;;;13.93;8.95;;;;;;;19.46;38.77;147040.12;1834248;77;22184;-62
2021/09/30 06:52:06;;;;;;;10.75;7.22;;;;;;;18.64;39.28;146838.11;1834096;77;22616;-62
2021/09/30 06:55:03;;;;;;;15.13;6.65;;;;;;;17.67;39.45;146599.63;1819047;77;28584;-62
2021/09/30 06:58:18;;;;;;;11.90;6.00;;;;;;;16.33;41.37;146268.06;1853513;77;22190;-56
2021/09/30 07:01:01;;;;;;;6.72;4.17;;;;;;;15.92;42.59;146168.56;1853842;77;22199;-63
2021/09/30 07:04:34;;;;;;;11.22;6.58;;;;;;;16.16;41.44;146227.78;1836018;77;22259;-62
2021/09/30 07:07:09;;;;;;;11.80;5.70;;;;;;;16.67;41.92;146353.77;1834944;77;22165;-64
2021/09/30 07:10:09;;;;;;;9.88;5.85;;;;;;;17.74;39.37;146616.05;1853477;77;22128;-58
2021/09/30 07:12:44;;;;;;;9.53;6.42;;;;;;;17.41;38.77;146535.33;1853521;77;22119;-61
2021/09/30 07:15:49;;;;;;;9.28;5.83;;;;;;;16.06;41.53;146202.59;1842894;77;22187;-64
2021/09/30 07:18:43;;;;;;;13.28;7.37;;;;;;;14.98;44.20;145938.14;1852357;77;22226;-60
2021/09/30 07:21:42;;;;;;;12.00;6.92;;;;;;;14.67;45.78;145860.09;1833243;77;22238;-60
2021/09/30 07:24:18;;;;;;;13.88;7.03;;;;;;;14.68;45.73;145862.59;1834964;77;22156;-61
2021/09/30 07:27:14;;;;;;;12.23;6.33;;;;;;;15.25;44.40;146002.33;1819063;77;28422;-59
2021/09/30 07:29:51;;;;;;;12.63;6.30;;;;;;;15.88;43.66;146158.50;1834888;77;22177;-63
2021/09/30 07:32:27;;;;;;;8.73;6.12;;;;;;;15.45;43.61;146052.69;1853469;77;22163;-65
2021/09/30 07:35:10;;;;;;;11.50;6.20;;;;;;;15.19;44.13;145989.73;1853231;77;22650;-60
2021/09/30 07:37:51;;;;;;;10.30;6.03;;;;;;;14.44;45.39;145804.69;1834056;77;22213;-60
2021/09/30 07:40:26;;;;;;;10.75;5.17;;;;;;;14.33;45.69;145778.28;1834927;77;22128;-62
2021/09/30 07:43:21;;;;;;;14.38;6.22;;;;;;;14.65;44.84;145855.06;1834913;77;22128;-60
2021/09/30 07:46:15;;;;;;;8.43;5.92;;;;;;;14.14;45.98;145729.22;1834873;77;22137;-64
2021/09/30 07:48:49;;;;;;;12.85;7.47;;;;;;;13.48;48.25;145568.25;1834872;77;22168;-63
2021/09/30 07:51:25;;;;;;;22.40;8.45;;;;;;;12.93;49.71;145433.73;1835029;77;22171;-59
2021/09/30 07:54:01;;;;;;;18.92;8.48;;;;;;;12.49;50.91;145325.70;1815961;79;20101;-61
2021/09/30 07:56:54;;;;;;;16.90;8.45;;;;;;;12.14;52.79;145240.28;1843210;77;22164;-63
2021/09/30 07:59:29;;;;;;;17.87;8.45;;;;;;;12.17;53.08;145246.56;1834860;77;22159;-64
2021/09/30 08:02:06;;;;;;;13.22;8.05;;;;;;;12.08;54.10;145225.19;1834751;77;22147;-61
2021/09/30 08:05:00;;;;;;;13.48;7.90;;;;;;;11.95;56.68;145193.80;1834904;77;22161;-64
2021/09/30 08:07:35;;;;;;;18.90;7.72;;;;;;;12.10;54.89;145230.22;1853360;77;22139;-67
2021/09/30 08:10:10;;;;;;;14.33;7.85;;;;;;;12.18;54.99;145249.06;1819287;77;28050;-63
2021/09/30 08:12:45;;;;;;;42.30;24.77;;;;;;;12.02;54.06;145210.14;1834764;77;22140;-60
2021/09/30 08:15:20;;;;;;;14.95;7.25;;;;;;;11.74;55.57;145141.03;1853377;77;22128;-61
2021/09/30 08:17:55;;;;;;;43.05;24.23;;;;;;;11.79;55.45;145153.59;1800584;79;22578;-56
2021/09/30 08:20:49;;;;;;;20.23;9.63;;;;;;;11.82;56.53;145161.12;1853386;77;22128;-59
2021/09/30 08:23:25;;;;;;;14.68;7.45;;;;;;;11.89;56.53;145178.75;1806110;77;28488;-65
2021/09/30 08:26:00;;;;;;;17.67;7.17;;;;;;;12.07;56.37;145221.45;1852887;77;22235;-59
2021/09/30 08:28:36;;;;;;;15.15;6.85;;;;;;;12.14;55.25;145239.03;1853411;77;22570;-59
2021/09/30 08:31:11;;;;;;;14.50;6.87;;;;;;;11.70;55.53;145132.28;1834867;77;22211;-62
2021/09/30 08:34:05;;;;;;;189.82;97.30;;;;;;;11.25;57.24;145020.56;1835122;77;22137;-59
2021/09/30 08:36:40;;;;;;;158.12;103.72;;;;;;;11.27;57.05;145025.53;1818976;77;28085;-61
2021/09/30 08:39:16;;;;;;;11.38;5.75;;;;;;;11.52;57.09;145087.05;1834945;77;22145;-62
2021/09/30 08:41:51;;;;;;;9.88;5.53;;;;;;;11.66;55.88;145120.97;1837559;77;28057;-60
2021/09/30 08:44:26;;;;;;;9.43;5.45;;;;;;;12.00;55.37;145205.11;1834921;77;22160;-61
2021/09/30 08:47:08;;;;;;;8.20;5.70;;;;;;;12.25;54.98;145265.41;1834014;77;22140;-61
2021/09/30 08:50:04;;;;;;;10.48;6.10;;;;;;;12.14;54.97;145239.03;1824157;77;22180;-59
2021/09/30 08:52:43;;;;;;;61.40;42.45;;;;;;;12.01;55.62;145206.36;1820441;77;22645;-64
2021/09/30 08:55:22;;;;;;;18.07;9.55;;;;;;;12.00;55.98;145203.86;1800035;77;22205;-63
2021/09/30 08:57:57;;;;;;;10.63;6.15;;;;;;;11.95;56.24;145192.56;1845719;77;22147;-61
2021/09/30 09:00:58;;;;;;;10.05;6.95;;;;;;;11.83;56.52;145162.36;1809252;77;22660;-59
2021/09/30 09:03:39;;;;;;;8.30;5.83;;;;;;;11.71;57.29;145133.52;1834715;77;22253;-59
2021/09/30 09:06:36;;;;;;;11.68;6.67;;;;;;;11.92;57.92;145185.03;1834871;77;22212;-58
2021/09/30 09:09:29;;;;;;;9.25;6.22;;;;;;;12.21;56.81;145256.58;1833075;77;22571;-60
2021/09/30 09:12:08;;;;;;;12.47;6.80;;;;;;;12.22;56.85;145257.87;1834971;77;22160;-60
2021/09/30 09:14:44;;;;;;;13.30;6.65;;;;;;;11.95;56.11;145193.80;1834955;77;22128;-59
2021/09/30 09:17:20;;;;;;;12.13;6.65;;;;;;;11.60;57.61;145105.88;1813722;77;28108;-69
2021/09/30 09:19:59;;;;;;;15.43;6.53;;;;;;;11.53;58.14;145089.59;1834786;77;22156;-56
2021/09/30 09:22:37;;;;;;;9.35;6.40;;;;;;;11.40;58.18;145058.20;1821586;77;22595;-61
2021/09/30 09:25:19;;;;;;;11.75;6.12;;;;;;;11.43;58.96;145064.48;1819796;77;22196;-66
2021/09/30 09:28:00;;;;;;;10.93;6.50;;;;;;;11.44;57.96;145066.97;1818389;77;22607;-64
2021/09/30 09:30:53;;;;;;;10.40;6.40;;;;;;;11.34;59.46;145041.88;1810349;77;22163;-63
2021/09/30 09:33:47;;;;;;;9.03;5.50;;;;;;;11.85;57.38;145168.64;1834814;77;22540;-65
2021/09/30 09:36:26;;;;;;;9.43;6.65;;;;;;;12.02;57.36;145208.89;1837635;77;28004;-63
2021/09/30 09:39:00;;;;;;;13.28;8.98;;;;;;;12.02;57.64;145210.14;1853353;77;22583;-60
2021/09/30 09:41:36;;;;;;;11.80;7.03;;;;;;;12.46;57.72;145316.89;1838260;77;22227;-58
2021/09/30 09:44:11;;;;;;;12.05;6.25;;;;;;;13.23;54.66;145506.66;1837585;77;27989;-67
2021/09/30 09:46:53;;;;;;;9.60;5.37;;;;;;;13.57;53.63;145590.89;1841248;77;22698;-66
2021/09/30 09:50:08;;;;;;;11.43;5.70;;;;;;;13.72;52.81;145626.12;1853007;77;22649;-68
2021/09/30 09:53:02;;;;;;;8.93;5.90;;;;;;;14.13;51.78;145727.97;1833805;77;22185;-68
2021/09/30 09:55:50;;;;;;;11.20;5.25;;;;;;;14.15;51.25;145733.00;1834664;77;22220;-67
2021/09/30 09:58:25;;;;;;;8.08;5.35;;;;;;;14.10;51.79;145720.42;1834877;77;22156;-67
2021/09/30 10:01:25;;;;;;;9.90;5.92;;;;;;;13.86;51.45;145662.55;1853503;77;22124;-64
2021/09/30 10:04:01;;;;;;;10.93;5.83;;;;;;;13.57;52.08;145589.66;1834913;77;22183;-68
2021/09/30 10:06:57;;;;;;;9.35;6.53;;;;;;;13.20;53.09;145500.38;1832372;77;29123;-62
2021/09/30 10:09:51;;;;;;;13.38;7.08;;;;;;;13.35;53.53;145535.58;1879444;75;22239;-63
2021/09/30 10:12:47;;;;;;;11.48;7.90;;;;;;;13.87;51.76;145663.84;1853448;77;22573;-62
2021/09/30 10:15:22;;;;;;;11.12;7.00;;;;;;;13.70;51.08;145621.08;1834890;77;22128;-61
2021/09/30 10:18:07;;;;;;;10.75;7.20;;;;;;;13.28;52.05;145517.97;1833922;77;22161;-58
2021/09/30 10:20:42;;;;;;;10.40;6.70;;;;;;;12.98;52.53;145445.06;1834911;77;22215;-62
2021/09/30 10:23:42;;;;;;;15.35;7.97;;;;;;;12.67;53.38;145368.38;1853311;77;23721;-60
2021/09/30 10:26:40;;;;;;;15.40;9.05;;;;;;;12.58;53.50;145347.05;1837742;77;27987;-61
2021/09/30 10:29:45;;;;;;;12.88;8.30;;;;;;;12.32;54.21;145284.25;1834862;77;22157;-63
2021/09/30 10:32:26;;;;;;;14.90;8.15;;;;;;;12.15;55.08;145241.53;1853487;77;22124;-64
2021/09/30 10:35:34;;;;;;;14.90;8.38;;;;;;;12.17;55.13;145246.56;1834974;77;22157;-58
2021/09/30 10:38:29;;;;;;;14.85;9.28;;;;;;;12.05;55.69;145217.66;1853316;77;22245;-62
2021/09/30 10:41:29;;;;;;;20.30;9.30;;;;;;;12.07;55.55;145221.45;1853361;77;22598;-64
2021/09/30 10:44:30;;;;;;;13.00;9.00;;;;;;;11.99;54.61;145201.38;1834996;77;22136;-59
2021/09/30 10:47:23;;;;;;;12.98;7.92;;;;;;;11.67;54.80;145123.45;1834952;77;22136;-63
2021/09/30 10:50:28;;;;;;;13.45;8.05;;;;;;;11.72;55.99;145136.02;1826100;77;22270;-63
2021/09/30 10:53:51;;;;;;;10.98;7.33;;;;;;;11.70;56.89;145130.98;1819827;77;22172;-64
2021/09/30 10:56:45;;;;;;;17.70;9.75;;;;;;;11.74;55.78;145142.28;1817782;77;22583;-62
2021/09/30 10:59:40;;;;;;;17.92;11.30;;;;;;;11.67;56.98;145123.45;1809970;77;22273;-60
2021/09/30 11:02:14;;;;;;;17.52;10.45;;;;;;;12.06;56.03;145220.20;1834986;77;22247;-65
2021/09/30 11:05:10;;;;;;;14.90;10.05;;;;;;;13.13;55.03;145482.75;1853605;77;22251;-66
2021/09/30 11:07:45;;;;;;;15.93;7.92;;;;;;;14.01;51.38;145699.02;1834790;77;22132;-59
2021/09/30 11:10:39;;;;;;;13.70;8.68;;;;;;;14.27;50.63;145761.91;1834879;77;22124;-64
2021/09/30 11:13:18;;;;;;;14.15;8.30;;;;;;;14.61;50.41;145845.02;1851257;77;22131;-63
2021/09/30 11:16:14;;;;;;;14.93;9.05;;;;;;;15.26;49.05;146006.08;1805397;77;28718;-65
2021/09/30 11:19:33;;;;;;;13.20;8.10;;;;;;;15.71;47.17;146116.94;1834122;77;22614;-62
2021/09/30 11:22:12;;;;;;;12.95;8.50;;;;;;;15.91;46.70;146164.81;1853185;77;22163;-65
2021/09/30 11:25:06;;;;;;;14.38;7.80;;;;;;;16.16;45.00;146227.78;1833420;77;22187;-62
2021/09/30 11:27:51;;;;;;;12.85;8.08;;;;;;;15.40;46.22;146040.09;1822779;77;22200;-66
2021/09/30 11:30:45;;;;;;;12.20;7.55;;;;;;;14.83;47.23;145899.09;1819569;77;22204;-65
2021/09/30 11:33:44;;;;;;;11.50;7.17;;;;;;;14.97;47.93;145935.59;1834796;77;22132;-60
2021/09/30 11:36:19;;;;;;;11.50;8.08;;;;;;;15.28;47.23;146011.13;1853460;77;22136;-61
2021/09/30 11:38:57;;;;;;;10.23;7.53;;;;;;;15.62;46.59;146094.20;1819185;77;28438;-64
2021/09/30 11:41:36;;;;;;;10.45;7.28;;;;;;;15.83;45.85;146147.16;1834770;77;22165;-63
2021/09/30 11:44:30;;;;;;;11.60;8.08;;;;;;;15.65;46.91;146101.80;1835010;77;22196;-63
2021/09/30 11:47:46;;;;;;;13.75;8.75;;;;;;;16.13;46.27;146220.23;1832439;77;22231;-63
2021/09/30 11:50:26;;;;;;;14.05;9.20;;;;;;;15.88;46.18;146157.25;1805483;77;22168;-63
2021/09/30 11:53:08;;;;;;;13.98;7.85;;;;;;;15.48;45.97;146058.97;1834589;77;22229;-63
2021/09/30 11:56:04;;;;;;;14.90;8.75;;;;;;;15.23;46.74;145998.53;1853424;77;22599;-60
2021/09/30 11:59:07;;;;;;;12.65;8.20;;;;;;;15.09;48.43;145963.31;1853602;77;22203;-63
2021/09/30 12:01:54;;;;;;;12.40;7.90;;;;;;;15.41;47.22;146042.59;1834081;77;22203;-59
2021/09/30 12:07:23;;;;;;;184.52;95.70;;;;;;;15.14;47.76;145975.91;1853411;77;22183;-61
2021/09/30 12:10:00;;;;;;;17.25;10.18;;;;;;;15.57;47.20;146081.61;1834814;77;22164;-62
2021/09/30 12:12:36;;;;;;;13.68;8.20;;;;;;;15.88;46.62;146157.25;1834918;77;22594;-62
2021/09/30 12:15:11;;;;;;;12.23;9.00;;;;;;;16.14;45.26;146222.73;1819317;77;27995;-61
2021/09/30 12:18:22;;;;;;;10.43;7.40;;;;;;;15.95;45.63;146174.84;1834818;77;22590;-63
2021/09/30 12:21:16;;;;;;;11.33;7.62;;;;;;;16.09;45.40;146210.14;1834848;77;22132;-62
2021/09/30 12:24:11;;;;;;;11.90;8.08;;;;;;;16.00;45.16;146187.45;1828024;77;22166;-60
2021/09/30 12:26:47;;;;;;;13.22;9.45;;;;;;;15.53;45.99;146071.56;1837828;77;38291;-64
2021/09/30 12:29:23;;;;;;;18.02;8.63;;;;;;;15.37;46.17;146033.80;1834876;77;22156;-61
2021/09/30 12:32:27;;;;;;;219.62;124.78;;;;;;;15.17;46.61;145983.44;1834759;77;23237;-60
2021/09/30 12:35:11;;;;;;;17.95;10.50;;;;;;;15.12;47.45;145972.11;1853540;77;22147;-62
2021/09/30 12:38:16;;;;;;;10.15;7.37;;;;;;;15.23;47.51;145998.53;1835007;77;22171;-62
2021/09/30 12:40:57;;;;;;;13.62;8.85;;;;;;;15.46;47.55;146053.94;1834825;77;22168;-66
2021/09/30 12:43:35;;;;;;;17.40;9.35;;;;;;;15.41;46.17;146043.84;1834807;77;22179;-60
2021/09/30 12:46:35;;;;;;;16.57;8.90;;;;;;;15.33;46.26;146023.70;1853395;77;22851;-64
2021/09/30 12:49:10;;;;;;;16.62;9.25;;;;;;;15.34;46.56;146026.25;1834829;77;22187;-63
2021/09/30 12:52:19;;;;;;;13.48;7.90;;;;;;;15.53;46.46;146071.56;1834636;77;22192;-61
2021/09/30 12:55:25;;;;;;;13.68;9.15;;;;;;;15.68;46.04;146108.09;1837542;77;28503;-65
2021/09/30 12:58:40;;;;;;;14.23;8.83;;;;;;;15.64;46.23;146099.25;1853435;77;22208;-63
2021/09/30 13:01:33;;;;;;;12.90;8.45;;;;;;;15.44;46.24;146048.89;1834091;77;22286;-61
2021/09/30 13:04:33;;;;;;;13.05;7.80;;;;;;;15.36;46.47;146031.25;1834041;77;22172;-62
2021/09/30 13:07:45;;;;;;;16.42;8.58;;;;;;;15.76;46.03;146129.53;1853434;77;22156;-63
2021/09/30 13:10:34;;;;;;;11.08;7.67;;;;;;;15.75;45.35;146125.78;1853370;77;22179;-60
2021/09/30 13:13:28;;;;;;;14.65;9.28;;;;;;;15.61;45.95;146091.70;1837684;77;27971;-65
2021/09/30 13:16:23;;;;;;;13.72;8.03;;;;;;;15.50;45.74;146065.28;1834930;77;22586;-60
2021/09/30 13:18:59;;;;;;;17.20;8.78;;;;;;;15.32;46.05;146021.20;1852437;77;22228;-71
2021/09/30 13:22:03;;;;;;;12.88;7.28;;;;;;;15.02;46.87;145945.69;1853282;77;22160;-63
2021/09/30 13:25:01;;;;;;;15.80;8.23;;;;;;;14.95;47.63;145930.56;1834894;77;22136;-64
2021/09/30 13:28:01;;;;;;;26.12;9.28;;;;;;;15.06;47.24;145957.03;1834092;77;22181;-62
2021/09/30 13:30:55;;;;;;;13.83;9.13;;;;;;;15.06;46.58;145957.03;1834917;77;22195;-66
2021/09/30 13:33:54;;;;;;;19.32;9.05;;;;;;;14.86;47.61;145907.94;1824648;77;22171;-61
2021/09/30 13:36:49;;;;;;;12.85;9.40;;;;;;;14.77;47.28;145885.27;1834848;77;22136;-62
2021/09/30 13:39:24;;;;;;;12.78;8.58;;;;;;;14.44;47.39;145803.44;1837730;77;38718;-65
2021/09/30 13:42:27;;;;;;;10.55;7.95;;;;;;;14.32;48.68;145775.78;1852040;77;22171;-65
2021/09/30 13:45:12;;;;;;;15.45;8.98;;;;;;;14.42;48.68;145799.64;1834158;77;22161;-63
2021/09/30 13:47:56;;;;;;;13.83;9.33;;;;;;;14.60;48.78;145842.47;1848332;78;22224;-63
2021/09/30 13:50:50;;;;;;;16.02;10.28;;;;;;;14.62;48.05;145847.52;1834892;77;22140;-64
2021/09/30 13:53:44;;;;;;;14.53;9.25;;;;;;;14.50;48.36;145818.52;1834854;77;22578;-65
2021/09/30 13:56:43;;;;;;;19.10;10.40;;;;;;;14.27;48.48;145761.91;1834049;77;22160;-63
2021/09/30 13:59:38;;;;;;;16.45;9.73;;;;;;;14.19;48.53;145741.78;1833742;77;22235;-62
2021/09/30 14:02:39;;;;;;;13.28;8.70;;;;;;;14.05;49.06;145709.09;1833465;77;22275;-64
2021/09/30 14:05:20;;;;;;;16.57;10.58;;;;;;;14.02;49.53;145701.56;1853144;77;22191;-62
2021/09/30 14:08:17;;;;;;;13.15;8.70;;;;;;;13.94;49.27;145681.41;1853413;77;22155;-64
2021/09/30 14:11:13;;;;;;;12.73;9.45;;;;;;;13.88;49.52;145666.34;1834591;77;22179;-64
2021/09/30 14:13:52;;;;;;;13.78;9.83;;;;;;;13.82;49.54;145652.52;1845101;77;22167;-63
2021/09/30 14:16:27;;;;;;;19.87;9.28;;;;;;;13.76;49.62;145637.39;1824899;77;22143;-68
2021/09/30 14:19:25;;;;;;;17.90;10.65;;;;;;;13.63;50.79;145605.97;1822968;77;22573;-64
2021/09/30 14:22:00;;;;;;;15.28;9.38;;;;;;;13.59;50.59;145595.94;1810017;77;22174;-64
2021/09/30 14:24:35;;;;;;;14.50;9.78;;;;;;;13.52;50.87;145577.08;1850324;77;22151;-65
2021/09/30 14:27:10;;;;;;;17.48;9.93;;;;;;;13.49;51.07;145570.80;1821788;77;22133;-62
2021/09/30 14:29:45;;;;;;;17.05;9.20;;;;;;;13.39;50.93;145545.66;1805821;77;22165;-64
2021/09/30 14:32:26;;;;;;;14.30;9.75;;;;;;;13.34;51.65;145533.08;1805158;77;22630;-63
2021/09/30 14:35:02;;;;;;;17.65;10.70;;;;;;;13.27;51.68;145515.47;1824321;77;22572;-65
2021/09/30 14:37:37;;;;;;;16.70;9.98;;;;;;;13.23;51.68;145506.66;1834680;77;22175;-65
2021/09/30 14:40:19;;;;;;;17.32;9.45;;;;;;;13.21;51.93;145502.86;1853177;77;22643;-65
2021/09/30 14:43:12;;;;;;;20.68;9.98;;;;;;;13.18;52.11;145495.33;1800413;77;22253;-66
2021/09/30 14:45:49;;;;;;;19.98;9.08;;;;;;;13.05;52.52;145462.63;1812262;77;22164;-62
2021/09/30 14:48:24;;;;;;;23.52;9.53;;;;;;;12.92;53.13;145429.95;1816915;77;22630;-65
2021/09/30 14:51:18;;;;;;;18.85;9.30;;;;;;;12.83;53.86;145407.37;1828637;77;22195;-67
2021/09/30 14:54:12;;;;;;;15.90;9.55;;;;;;;12.78;53.76;145397.30;1827312;77;22167;-66
2021/09/30 14:56:53;;;;;;;16.65;8.90;;;;;;;12.74;54.08;145385.98;1827398;77;22221;-62
2021/09/30 14:59:46;;;;;;;13.58;9.53;;;;;;;12.60;54.06;145353.33;1831547;77;22143;-63
2021/09/30 15:02:21;;;;;;;15.50;8.70;;;;;;;12.49;54.54;145324.41;1833930;77;22202;-68
2021/09/30 15:04:56;;;;;;;14.33;9.48;;;;;;;12.36;54.75;145294.31;1820769;77;22562;-65
2021/09/30 15:07:32;;;;;;;21.57;9.68;;;;;;;12.27;54.77;145271.69;1836178;77;22581;-65
2021/09/30 15:10:08;;;;;;;17.92;10.95;;;;;;;12.20;54.77;145252.84;1797221;77;28078;-59
2021/09/30 15:13:00;;;;;;;14.90;9.78;;;;;;;12.18;54.98;145249.06;1803894;77;22234;-64
2021/09/30 15:15:36;;;;;;;13.90;9.75;;;;;;;12.11;55.42;145231.47;1816581;77;22159;-65
2021/09/30 15:18:22;;;;;;;20.50;10.45;;;;;;;12.03;55.60;145212.64;1809167;77;22210;-61
2021/09/30 15:24:05;;;;;;;16.65;10.18;;;;;;;11.91;56.11;145182.53;1834683;77;22132;-60
2021/09/30 15:27:06;;;;;;;17.67;10.15;;;;;;;11.85;56.36;145167.41;1833768;77;22167;-63
2021/09/30 15:30:08;;;;;;;21.05;10.10;;;;;;;11.79;56.63;145152.34;1853393;77;22191;-62
2021/09/30 15:33:12;;;;;;;18.40;10.25;;;;;;;11.71;56.78;145133.52;1826195;77;22204;-62
2021/09/30 15:36:05;;;;;;;20.72;12.03;;;;;;;11.63;57.28;145114.69;1819299;77;27999;-60
2021/09/30 15:38:41;;;;;;;19.52;11.48;;;;;;;11.61;57.41;145108.41;1828714;77;22205;-63
2021/09/30 15:41:37;;;;;;;19.25;10.48;;;;;;;11.53;57.50;145088.34;1831304;77;22594;-60